Time;durP1;ratioP1;P1;durP2;ratioP2;P2;SDS_P1;SDS_P2;PMS_P1;PMS_P2;Temp;Humidity;BMP_temperature;BMP_pressure;BME280_temperature;BME280_humidity;BME280_pressure;Samples;Min_cycle;Max_cycle;Signal;HPM_P1;HPM_P2
2023/05/06 00:02:17;;;;;;;4.70;1.50;;;;;;;11.29;100.00;100280.13;108781;1258;75214;-62
2023/05/06 00:04:44;;;;;;;3.90;1.50;;;;;;;11.24;100.00;100281.80;108870;1257;62868;-54
2023/05/06 00:07:11;;;;;;;3.90;1.70;;;;;;;11.20;100.00;100282.08;108929;1257;61626;-54
2023/05/06 00:09:39;;;;;;;3.60;1.30;;;;;;;11.15;100.00;100286.02;108833;1257;75063;-54
2023/05/06 00:12:06;;;;;;;3.60;1.80;;;;;;;11.09;100.00;100287.23;108881;1257;68274;-54
2023/05/06 00:14:32;;;;;;;4.40;1.90;;;;;;;11.05;100.00;100289.45;108775;1259;75207;-54
2023/05/06 00:17:00;;;;;;;3.20;1.50;;;;;;;11.01;100.00;100293.09;108841;1258;62901;-54
2023/05/06 00:19:27;;;;;;;2.80;1.40;;;;;;;10.97;100.00;100300.35;108827;1257;61280;-54
2023/05/06 00:21:54;;;;;;;3.40;1.50;;;;;;;10.91;100.00;100297.37;108823;1258;75088;-55
2023/05/06 00:24:21;;;;;;;4.60;1.30;;;;;;;10.86;100.00;100302.48;108795;1257;69355;-55
2023/05/06 00:26:48;;;;;;;2.20;1.20;;;;;;;10.84;100.00;100304.11;108738;1257;74860;-55
2023/05/06 00:29:16;;;;;;;3.40;1.10;;;;;;;10.85;100.00;100307.97;108856;1258;62519;-54
2023/05/06 00:31:44;;;;;;;2.80;1.20;;;;;;;10.86;100.00;100306.98;108848;1258;62589;-54
2023/05/06 00:34:11;;;;;;;3.30;1.30;;;;;;;10.86;100.00;100305.64;108830;1259;76403;-54
2023/05/06 00:36:38;;;;;;;6.40;1.60;;;;;;;10.84;100.00;100306.27;108803;1259;68367;-55
2023/05/06 00:39:05;;;;;;;3.70;1.50;;;;;;;10.83;100.00;100308.30;108855;1257;75198;-54
2023/05/06 00:41:32;;;;;;;4.70;1.80;;;;;;;10.83;100.00;100306.90;108798;1262;64389;-54
2023/05/06 00:43:59;;;;;;;3.30;1.40;;;;;;;10.85;100.00;100305.28;108856;1257;62796;-58
2023/05/06 00:46:26;;;;;;;3.20;1.50;;;;;;;10.81;100.00;100300.27;108810;1258;75497;-57
2023/05/06 00:48:54;;;;;;;3.20;1.90;;;;;;;10.82;100.00;100300.06;108725;1258;68436;-54
2023/05/06 00:51:21;;;;;;;5.40;1.90;;;;;;;10.81;100.00;100301.55;108855;1258;74507;-54
2023/05/06 00:53:48;;;;;;;2.80;1.40;;;;;;;10.82;100.00;100300.42;108763;1260;64212;-58
2023/05/06 00:56:16;;;;;;;3.80;1.30;;;;;;;10.82;100.00;100301.63;108801;1257;63227;-54
2023/05/06 00:58:47;;;;;;;2.20;1.30;;;;;;;10.81;100.00;100300.91;108763;1257;76381;-54
2023/05/06 01:01:14;;;;;;;2.90;1.40;;;;;;;10.76;100.00;100297.77;108812;1259;69354;-55
2023/05/06 01:03:41;;;;;;;4.40;1.60;;;;;;;10.73;100.00;100296.48;108670;1257;75152;-55
2023/05/06 01:06:11;;;;;;;2.90;1.40;;;;;;;10.69;100.00;100300.33;108760;1257;63418;-58
2023/05/06 01:08:57;;;;;;;3.20;1.30;;;;;;;10.66;100.00;100299.92;108769;1258;62665;-54
2023/05/06 01:11:39;;;;;;;2.80;1.20;;;;;;;10.65;100.00;100305.70;108832;1258;75244;-54
2023/05/06 01:14:12;;;;;;;2.80;1.40;;;;;;;10.63;100.00;100305.62;108800;1258;69474;-58
2023/05/06 01:16:39;;;;;;;6.10;1.30;;;;;;;10.59;100.00;100310.43;108713;1258;73880;-54
2023/05/06 01:19:08;;;;;;;4.30;1.30;;;;;;;10.57;100.00;100309.95;108719;1257;64227;-54
2023/05/06 01:21:35;;;;;;;6.70;1.50;;;;;;;10.56;100.00;100312.54;108687;1258;61822;-54
2023/05/06 01:24:02;;;;;;;3.70;1.50;;;;;;;10.56;100.00;100310.27;108755;1258;73909;-57
2023/05/06 01:26:29;;;;;;;4.00;1.80;;;;;;;10.53;100.00;100315.81;108860;1257;69883;-54
2023/05/06 01:28:57;;;;;;;4.40;1.70;;;;;;;10.49;100.00;100315.11;108795;1257;74877;-54
2023/05/06 01:31:35;;;;;;;4.90;1.70;;;;;;;10.45;100.00;100320.21;108866;1257;63106;-61
2023/05/06 01:34:19;;;;;;;3.30;1.60;;;;;;;10.41;100.00;100320.38;108676;1259;62538;-58
2023/05/06 01:37:08;;;;;;;2.90;1.90;;;;;;;10.37;100.00;100323.09;108849;1257;76288;-54
2023/05/06 01:39:35;;;;;;;4.60;2.30;;;;;;;10.31;100.00;100324.41;108779;1257;68398;-55
2023/05/06 01:42:03;;;;;;;4.50;1.70;;;;;;;10.27;100.00;100327.33;108758;1257;75455;-53
2023/05/06 01:44:32;;;;;;;4.90;1.90;;;;;;;10.23;100.00;100328.16;108742;1257;63141;-54
2023/05/06 01:47:00;;;;;;;3.60;1.90;;;;;;;10.20;100.00;100331.68;108741;1257;62589;-54
2023/05/06 01:49:27;;;;;;;2.90;1.50;;;;;;;10.18;100.00;100333.45;108797;1257;75985;-54
2023/05/06 01:51:55;;;;;;;3.90;1.50;;;;;;;10.15;100.00;100338.27;108709;1259;67527;-56
2023/05/06 01:54:22;;;;;;;4.80;1.90;;;;;;;10.13;100.00;100333.86;108842;1259;75117;-54
2023/05/06 01:56:49;;;;;;;4.70;2.30;;;;;;;10.10;100.00;100334.26;108789;1257;63843;-54
2023/05/06 01:59:16;;;;;;;4.50;2.00;;;;;;;10.07;100.00;100333.65;108790;1257;62840;-54
2023/05/06 02:01:43;;;;;;;3.00;1.80;;;;;;;10.07;100.00;100329.02;108872;1257;73974;-57
2023/05/06 02:04:10;;;;;;;4.40;1.60;;;;;;;10.07;100.00;100331.09;108816;1258;69722;-54
2023/05/06 02:06:38;;;;;;;3.70;1.70;;;;;;;10.09;100.00;100331.92;108806;1257;75196;-54
2023/05/06 02:09:05;;;;;;;3.80;1.80;;;;;;;10.10;100.00;100331.05;108673;1259;64398;-55
2023/05/06 02:11:37;;;;;;;3.80;2.50;;;;;;;10.20;100.00;100340.86;108721;1258;62744;-60
2023/05/06 02:14:05;;;;;;;5.10;3.10;;;;;;;10.23;100.00;100340.70;108789;1257;75516;-56
2023/05/06 02:16:33;;;;;;;6.00;2.30;;;;;;;10.23;100.00;100342.42;108817;1258;68561;-57
2023/05/06 02:19:01;;;;;;;3.50;2.00;;;;;;;10.26;100.00;100346.66;108761;1258;74895;-54
2023/05/06 02:21:28;;;;;;;5.60;2.10;;;;;;;10.23;100.00;100351.70;108797;1259;64409;-57
2023/05/06 02:23:55;;;;;;;5.80;2.60;;;;;;;10.26;100.00;100353.95;108868;1257;62279;-56
2023/05/06 02:26:22;;;;;;;3.80;2.30;;;;;;;10.29;100.00;100349.28;108865;1257;74877;-56
2023/05/06 02:28:49;;;;;;;4.80;2.00;;;;;;;10.35;100.00;100346.41;108807;1257;69400;-58
2023/05/06 02:31:16;;;;;;;4.50;2.00;;;;;;;10.43;100.00;100350.04;108839;1257;75008;-56
2023/05/06 02:33:44;;;;;;;3.60;2.00;;;;;;;10.45;100.00;100351.80;108819;1257;63537;-56
2023/05/06 02:36:11;;;;;;;3.90;2.30;;;;;;;10.54;100.00;100354.83;108848;1257;61614;-57
2023/05/06 02:38:38;;;;;;;6.00;2.60;;;;;;;10.60;100.00;100361.94;108848;1259;76260;-56
2023/05/06 02:41:05;;;;;;;5.20;2.10;;;;;;;10.69;100.00;100362.18;108732;1257;69400;-54
2023/05/06 02:43:32;;;;;;;4.50;2.00;;;;;;;10.80;100.00;100368.17;108835;1257;74972;-54
2023/05/06 02:45:59;;;;;;;5.20;2.20;;;;;;;10.92;100.00;100371.00;108766;1257;64646;-57
2023/05/06 02:48:26;;;;;;;4.30;2.30;;;;;;;11.07;100.00;100366.08;108804;1257;61432;-57
2023/05/06 02:50:53;;;;;;;4.60;3.10;;;;;;;11.14;100.00;100369.80;108790;1258;76437;-61
2023/05/06 02:53:20;;;;;;;4.20;2.30;;;;;;;11.34;100.00;100368.70;108867;1258;70440;-57
2023/05/06 02:55:48;;;;;;;4.40;2.70;;;;;;;11.54;100.00;100366.89;108863;1258;74161;-54
2023/05/06 02:58:15;;;;;;;6.70;2.30;;;;;;;11.72;100.00;100363.77;108772;1257;64130;-56
2023/05/06 03:00:42;;;;;;;4.50;2.40;;;;;;;11.99;100.00;100361.33;108843;1258;62821;-56
2023/05/06 03:03:09;;;;;;;4.50;2.20;;;;;;;12.35;100.00;100359.84;108817;1259;75930;-56
2023/05/06 03:05:36;;;;;;;6.50;2.30;;;;;;;12.74;100.00;100359.13;108807;1257;69365;-56
2023/05/06 03:08:03;;;;;;;3.90;1.70;;;;;;;13.06;100.00;100350.88;108766;1257;75244;-60
2023/05/06 03:10:31;;;;;;;3.70;2.30;;;;;;;13.31;100.00;100346.19;108858;1257;63619;-56
2023/05/06 03:12:58;;;;;;;4.20;2.30;;;;;;;13.51;100.00;100342.45;108823;1257;61053;-59
2023/05/06 03:15:27;;;;;;;4.10;2.40;;;;;;;13.76;100.00;100337.88;108837;1257;76110;-56
2023/05/06 03:17:54;;;;;;;4.10;2.60;;;;;;;14.14;100.00;100334.66;108787;1259;68235;-56
2023/05/06 03:20:21;;;;;;;4.70;2.60;;;;;;;14.63;100.00;100335.45;108756;1259;75124;-59
2023/05/06 03:22:50;;;;;;;4.30;2.40;;;;;;;15.05;100.00;100332.80;108737;1259;62721;-56
2023/05/06 03:25:18;;;;;;;5.70;2.40;;;;;;;15.50;100.00;100332.16;108802;1257;61760;-57
2023/05/06 03:27:45;;;;;;;4.40;2.20;;;;;;;16.05;100.00;100332.86;108799;1262;76318;-56
2023/05/06 03:30:16;;;;;;;3.70;1.90;;;;;;;16.53;100.00;100325.04;108750;1259;69107;-57
2023/05/06 03:32:44;;;;;;;5.10;2.10;;;;;;;16.94;100.00;100324.23;108769;1257;74723;-59
2023/05/06 03:35:13;;;;;;;4.20;2.00;;;;;;;17.40;100.00;100326.14;108780;1259;62328;-55
2023/05/06 03:37:41;;;;;;;4.70;2.50;;;;;;;18.02;100.00;100328.84;108777;1260;62900;-54
2023/05/06 03:40:08;;;;;;;3.10;1.80;;;;;;;18.46;100.00;100329.60;108755;1257;75516;-55
2023/05/06 03:42:35;;;;;;;4.50;2.20;;;;;;;18.82;100.00;100337.39;108829;1257;67638;-57
2023/05/06 03:45:05;;;;;;;3.10;2.10;;;;;;;19.15;100.00;100335.85;108735;1257;74790;-56
2023/05/06 03:47:32;;;;;;;3.60;2.10;;;;;;;19.43;100.00;100334.90;108746;1257;60424;-56
2023/05/06 03:50:00;;;;;;;3.60;2.10;;;;;;;19.74;100.00;100339.54;108787;1257;62551;-56
2023/05/06 03:52:28;;;;;;;3.40;2.50;;;;;;;19.92;100.00;100339.20;108722;1264;75872;-58
2023/05/06 03:54:55;;;;;;;3.80;2.00;;;;;;;19.89;100.00;100339.25;108823;1258;68185;-57
2023/05/06 03:57:22;;;;;;;5.30;2.20;;;;;;;20.10;100.00;100347.54;108808;1257;74742;-57
2023/05/06 03:59:49;;;;;;;3.80;2.10;;;;;;;20.42;100.00;100348.48;108794;1262;62219;-56
2023/05/06 04:02:16;;;;;;;4.00;2.20;;;;;;;20.72;100.00;100346.44;108779;1260;61160;-55
2023/05/06 04:04:44;;;;;;;4.50;2.30;;;;;;;21.15;100.00;100347.86;108807;1257;75984;-54
2023/05/06 04:07:11;;;;;;;4.00;2.60;;;;;;;21.65;100.00;100351.80;108726;1257;68337;-54
2023/05/06 04:09:38;;;;;;;3.90;2.20;;;;;;;21.97;100.00;100351.55;108845;1257;75000;-54
2023/05/06 04:12:06;;;;;;;4.50;2.30;;;;;;;22.34;100.00;100356.61;108803;1257;62300;-54
2023/05/06 04:14:33;;;;;;;3.70;2.20;;;;;;;22.80;98.57;100361.89;108811;1262;62114;-55
2023/05/06 04:17:01;;;;;;;5.40;2.20;;;;;;;23.17;91.58;100362.17;108728;1263;75666;-58
2023/05/06 04:19:29;;;;;;;3.50;2.10;;;;;;;23.33;82.15;100364.85;108863;1257;69112;-54
2023/05/06 04:21:57;;;;;;;2.90;2.10;;;;;;;23.23;78.98;100367.34;108826;1257;73943;-56
2023/05/06 04:24:27;;;;;;;3.30;2.20;;;;;;;23.14;81.36;100375.04;108762;1259;62183;-59
2023/05/06 04:26:54;;;;;;;2.90;2.10;;;;;;;23.15;78.75;100378.23;108763;1257;62383;-57
2023/05/06 04:29:22;;;;;;;4.20;2.20;;;;;;;23.23;80.99;100379.84;108756;1258;74909;-55
2023/05/06 04:31:56;;;;;;;4.00;2.00;;;;;;;23.36;74.85;100383.53;108779;1263;67884;-55
2023/05/06 04:34:26;;;;;;;3.70;2.50;;;;;;;23.38;76.36;100386.83;108754;1257;73647;-56
2023/05/06 04:36:55;;;;;;;2.90;2.00;;;;;;;23.40;72.54;100384.54;108730;1259;61405;-59
2023/05/06 04:39:30;;;;;;;2.80;2.10;;;;;;;23.37;73.05;100393.09;108795;1258;61157;-54
2023/05/06 04:41:58;;;;;;;2.60;2.00;;;;;;;23.30;71.10;100396.23;108795;1257;74962;-54
2023/05/06 04:44:32;;;;;;;6.70;2.40;;;;;;;23.22;70.38;100401.74;108791;1257;69285;-54
2023/05/06 04:47:00;;;;;;;4.60;2.00;;;;;;;23.15;72.95;100405.83;108727;1257;74389;-54
2023/05/06 04:49:27;;;;;;;2.70;2.00;;;;;;;23.30;72.94;100403.51;108798;1258;62209;-54
2023/05/06 04:51:55;;;;;;;4.20;1.90;;;;;;;23.49;71.64;100404.66;108767;1257;61300;-58
2023/05/06 04:54:22;;;;;;;3.90;2.60;;;;;;;23.51;66.02;100405.09;108797;1257;75655;-54
2023/05/06 04:56:49;;;;;;;2.50;1.70;;;;;;;23.16;68.15;100409.77;108728;1257;69071;-55
2023/05/06 04:59:17;;;;;;;2.80;1.90;;;;;;;22.90;70.32;100407.44;108769;1257;73073;-54
2023/05/06 05:01:44;;;;;;;2.90;2.00;;;;;;;22.79;73.25;100412.55;108784;1257;61283;-54
2023/05/06 05:04:11;;;;;;;4.40;2.10;;;;;;;22.91;75.67;100411.70;108772;1257;61046;-53
2023/05/06 05:06:39;;;;;;;3.00;1.80;;;;;;;23.12;72.91;100417.89;108787;1258;75846;-55
2023/05/06 05:09:06;;;;;;;3.80;2.00;;;;;;;23.23;69.25;100420.31;108738;1258;69085;-56
2023/05/06 05:11:36;;;;;;;3.20;1.80;;;;;;;23.20;68.15;100422.23;108786;1258;73749;-54
2023/05/06 05:14:04;;;;;;;2.90;1.90;;;;;;;23.21;68.84;100423.83;108677;1257;61519;-54
2023/05/06 05:16:31;;;;;;;6.20;2.70;;;;;;;23.19;66.33;100425.99;108710;1257;61147;-57
2023/05/06 05:18:59;;;;;;;3.30;1.80;;;;;;;23.00;69.39;100421.90;108782;1257;75925;-54
2023/05/06 05:21:30;;;;;;;4.90;2.00;;;;;;;22.84;75.48;100425.16;108787;1257;69126;-53
2023/05/06 05:23:57;;;;;;;3.80;2.20;;;;;;;22.84;76.07;100425.91;108754;1259;74959;-55
2023/05/06 05:26:25;;;;;;;2.80;1.60;;;;;;;22.96;76.57;100429.86;108757;1257;59614;-58
2023/05/06 05:28:52;;;;;;;3.20;1.60;;;;;;;23.00;69.72;100430.62;108637;1258;197057;-54
2023/05/06 05:31:19;;;;;;;3.60;2.00;;;;;;;22.62;72.60;100429.02;108847;1257;76104;-53
2023/05/06 05:33:46;;;;;;;2.40;1.70;;;;;;;22.38;77.42;100426.27;108840;1257;67870;-53
2023/05/06 05:36:15;;;;;;;3.80;1.70;;;;;;;22.24;79.39;100423.42;108696;1257;74762;-56
2023/05/06 05:38:42;;;;;;;2.30;1.60;;;;;;;22.30;84.22;100426.48;108713;1260;61678;-54
2023/05/06 05:41:10;;;;;;;5.30;2.10;;;;;;;22.73;80.33;100434.42;108817;1258;61127;-53
2023/05/06 05:43:37;;;;;;;3.70;1.90;;;;;;;23.11;73.33;100436.08;108828;1257;76157;-53
2023/05/06 05:46:04;;;;;;;2.60;1.70;;;;;;;23.30;71.71;100436.51;108770;1257;68107;-55
2023/05/06 05:48:32;;;;;;;3.20;1.70;;;;;;;23.25;70.28;100441.75;108746;1260;73771;-57
2023/05/06 05:51:03;;;;;;;3.90;1.90;;;;;;;23.00;70.18;100446.63;108772;1263;62355;-53
2023/05/06 05:53:30;;;;;;;4.70;1.90;;;;;;;22.49;72.66;100450.70;108788;1257;61616;-54
2023/05/06 05:55:57;;;;;;;3.20;1.70;;;;;;;21.85;80.66;100448.27;108749;1257;75082;-53
2023/05/06 05:58:25;;;;;;;3.90;1.40;;;;;;;21.38;90.74;100448.48;108706;1257;67584;-57
2023/05/06 06:00:52;;;;;;;5.40;1.90;;;;;;;21.30;95.32;100449.85;108788;1257;74553;-53
2023/05/06 06:03:19;;;;;;;4.30;2.10;;;;;;;21.23;95.43;100452.05;108834;1257;61454;-55
2023/05/06 06:05:48;;;;;;;3.70;1.60;;;;;;;21.06;97.62;100454.04;108830;1257;62860;-56
2023/05/06 06:08:18;;;;;;;5.40;1.90;;;;;;;20.81;99.79;100459.36;108700;1257;75934;-55
2023/05/06 06:10:46;;;;;;;2.70;1.40;;;;;;;20.45;100.00;100459.86;108786;1257;69672;-54
2023/05/06 06:13:16;;;;;;;2.60;1.90;;;;;;;20.19;100.00;100461.04;108807;1257;74842;-53
2023/05/06 06:15:43;;;;;;;2.70;1.70;;;;;;;20.13;100.00;100460.77;108726;1257;62498;-53
2023/05/06 06:18:10;;;;;;;2.30;1.40;;;;;;;20.06;100.00;100467.89;108788;1257;62580;-57
2023/05/06 06:20:37;;;;;;;3.60;1.80;;;;;;;19.95;100.00;100471.25;108761;1260;76088;-54
2023/05/06 06:23:05;;;;;;;4.30;1.70;;;;;;;19.37;100.00;100478.87;108877;1257;68096;-53
2023/05/06 06:25:32;;;;;;;4.70;1.90;;;;;;;18.86;100.00;100485.30;108833;1257;74753;-53
2023/05/06 06:27:59;;;;;;;3.10;1.80;;;;;;;18.44;100.00;100488.52;108840;1257;61952;-53
2023/05/06 06:30:26;;;;;;;2.60;1.60;;;;;;;18.05;100.00;100489.66;108788;1257;61457;-56
2023/05/06 06:32:53;;;;;;;4.60;1.50;;;;;;;17.72;100.00;100497.71;108859;1257;75965;-54
2023/05/06 06:35:20;;;;;;;3.60;1.50;;;;;;;17.37;100.00;100493.80;108832;1261;69222;-53
2023/05/06 06:37:48;;;;;;;3.30;1.70;;;;;;;17.02;100.00;100499.67;108844;1257;74512;-53
2023/05/06 06:40:15;;;;;;;3.70;1.40;;;;;;;16.78;100.00;100501.02;108824;1257;61773;-54
2023/05/06 06:42:42;;;;;;;2.80;1.60;;;;;;;16.64;100.00;100506.67;108671;1258;62292;-53
2023/05/06 06:45:33;;;;;;;3.90;1.60;;;;;;;16.38;100.00;100506.17;108795;1261;75918;-54
2023/05/06 06:48:00;;;;;;;5.90;2.70;;;;;;;16.13;100.00;100506.80;108806;1257;69164;-60
2023/05/06 06:50:27;;;;;;;4.40;2.60;;;;;;;16.00;100.00;100506.61;108800;1257;75013;-55
2023/05/06 06:52:54;;;;;;;3.60;2.00;;;;;;;15.88;100.00;100510.29;108826;1257;60811;-55
2023/05/06 06:55:21;;;;;;;5.30;1.80;;;;;;;15.76;100.00;100514.66;108837;1257;61325;-55
2023/05/06 06:57:48;;;;;;;4.20;2.10;;;;;;;15.56;100.00;100518.80;108837;1257;74613;-55
2023/05/06 07:00:16;;;;;;;5.00;2.30;;;;;;;15.34;100.00;100522.63;108783;1257;67101;-59
2023/05/06 07:02:43;;;;;;;4.50;2.30;;;;;;;15.30;100.00;100527.83;108871;1257;73858;-55
2023/05/06 07:05:10;;;;;;;3.90;2.30;;;;;;;15.30;100.00;100531.42;108776;1257;61342;-56
2023/05/06 07:07:37;;;;;;;3.30;2.10;;;;;;;15.32;100.00;100531.53;108826;1257;62376;-55
2023/05/06 07:10:05;;;;;;;3.90;2.30;;;;;;;15.40;100.00;100532.39;108828;1257;74836;-60
2023/05/06 07:12:32;;;;;;;4.00;2.10;;;;;;;15.56;100.00;100533.02;108719;1257;69658;-59
2023/05/06 07:14:59;;;;;;;4.20;1.90;;;;;;;15.69;100.00;100538.08;108825;1257;74518;-56
2023/05/06 07:17:26;;;;;;;2.60;1.80;;;;;;;15.84;100.00;100537.64;108825;1257;61487;-56
2023/05/06 07:19:53;;;;;;;3.20;1.80;;;;;;;16.02;100.00;100538.67;108779;1257;62757;-55
2023/05/06 07:22:20;;;;;;;3.00;1.70;;;;;;;16.11;100.00;100540.77;108845;1257;75699;-60
2023/05/06 07:24:47;;;;;;;4.00;1.80;;;;;;;16.12;100.00;100545.77;108757;1257;69613;-59
2023/05/06 07:27:15;;;;;;;4.00;1.90;;;;;;;16.23;100.00;100547.69;108822;1257;74814;-56
2023/05/06 07:29:42;;;;;;;4.30;2.00;;;;;;;16.37;100.00;100545.00;108791;1257;62472;-56
2023/05/06 07:32:09;;;;;;;4.10;2.00;;;;;;;16.50;100.00;100542.52;108859;1257;62242;-56
2023/05/06 07:34:37;;;;;;;2.70;1.40;;;;;;;16.66;100.00;100542.10;108787;1257;74534;-55
2023/05/06 07:37:06;;;;;;;3.30;2.00;;;;;;;16.87;100.00;100537.92;108794;1257;69083;-60
2023/05/06 07:39:33;;;;;;;4.80;2.30;;;;;;;17.12;100.00;100537.30;108845;1257;75013;-56
2023/05/06 07:42:00;;;;;;;2.60;1.70;;;;;;;17.62;100.00;100539.84;108780;1257;62381;-56
2023/05/06 07:44:27;;;;;;;5.40;2.20;;;;;;;18.15;100.00;100537.44;108735;1257;61308;-56
2023/05/06 07:46:55;;;;;;;2.70;1.50;;;;;;;18.57;100.00;100533.20;108791;1257;75962;-57
2023/05/06 07:49:22;;;;;;;5.30;1.80;;;;;;;18.95;100.00;100536.03;108825;1257;69098;-57
2023/05/06 07:51:50;;;;;;;2.80;1.40;;;;;;;19.06;100.00;100538.52;108802;1259;74497;-55
2023/05/06 07:54:17;;;;;;;2.50;1.50;;;;;;;19.01;100.00;100535.42;108747;1257;61380;-60
2023/05/06 07:56:44;;;;;;;2.20;1.30;;;;;;;18.93;100.00;100536.32;108808;1257;61066;-54
2023/05/06 07:59:11;;;;;;;5.40;2.00;;;;;;;18.98;100.00;100537.02;108782;1257;74638;-55
2023/05/06 08:01:38;;;;;;;4.70;1.40;;;;;;;19.05;100.00;100539.70;108847;1257;68985;-55
2023/05/06 08:04:06;;;;;;;3.90;1.70;;;;;;;19.23;100.00;100534.48;108832;1257;75115;-56
2023/05/06 08:06:33;;;;;;;2.70;1.30;;;;;;;19.66;100.00;100530.89;108765;1257;62186;-56
2023/05/06 08:09:00;;;;;;;3.00;1.60;;;;;;;19.99;100.00;100534.02;108800;1257;61320;-59
2023/05/06 08:11:27;;;;;;;2.90;1.40;;;;;;;20.37;100.00;100534.88;108822;1257;76504;-53
2023/05/06 08:13:54;;;;;;;2.50;1.60;;;;;;;20.89;100.00;100531.84;108862;1257;69538;-53
2023/05/06 08:16:21;;;;;;;4.10;1.90;;;;;;;21.25;100.00;100537.20;108845;1257;75086;-54
2023/05/06 08:18:51;;;;;;;2.70;1.50;;;;;;;21.61;98.04;100536.15;108795;1257;61554;-57
2023/05/06 08:21:18;;;;;;;4.90;1.70;;;;;;;21.94;90.61;100530.20;108791;1257;61610;-54
2023/05/06 08:23:45;;;;;;;4.10;1.40;;;;;;;22.22;80.26;100532.80;108840;1257;76390;-54
2023/05/06 08:26:12;;;;;;;2.70;1.30;;;;;;;22.31;80.49;100526.30;108871;1257;68874;-53
2023/05/06 08:28:39;;;;;;;3.10;1.40;;;;;;;22.22;77.16;100530.05;108791;1257;75276;-54
2023/05/06 08:31:07;;;;;;;3.10;1.80;;;;;;;21.96;82.55;100528.52;108714;1257;62859;-54
2023/05/06 08:33:34;;;;;;;2.00;1.00;;;;;;;21.98;81.79;100530.84;108864;1257;62722;-54
2023/05/06 08:36:01;;;;;;;3.30;1.20;;;;;;;22.09;78.70;100532.05;108813;1257;75984;-54
2023/05/06 08:38:28;;;;;;;2.60;1.20;;;;;;;22.26;72.21;100531.09;108832;1257;68191;-54
2023/05/06 08:40:55;;;;;;;2.70;1.20;;;;;;;22.33;69.29;100534.19;108749;1259;74515;-57
2023/05/06 08:43:22;;;;;;;6.70;1.60;;;;;;;22.18;70.37;100534.41;108736;1257;62524;-54
2023/05/06 08:45:49;;;;;;;2.80;1.10;;;;;;;21.84;70.65;100532.02;108847;1257;61098;-54
2023/05/06 08:48:16;;;;;;;3.90;1.20;;;;;;;21.54;73.00;100534.53;108862;1257;74626;-54
2023/05/06 08:50:43;;;;;;;3.60;1.40;;;;;;;21.40;72.59;100535.02;108791;1258;68067;-59
2023/05/06 08:53:15;;;;;;;2.10;1.00;;;;;;;21.23;71.09;100538.96;108793;1257;75263;-56
2023/05/06 08:55:42;;;;;;;2.40;1.10;;;;;;;21.02;64.25;100536.73;108783;1258;62474;-54
2023/05/06 08:58:10;;;;;;;5.60;1.30;;;;;;;20.80;65.12;100545.13;108693;1257;62419;-54
2023/05/06 09:00:37;;;;;;;2.00;1.20;;;;;;;20.57;62.85;100545.05;108753;1257;74451;-58
2023/05/06 09:03:04;;;;;;;3.30;1.00;;;;;;;20.45;60.50;100548.14;108847;1257;69979;-57
2023/05/06 09:05:32;;;;;;;5.00;1.30;;;;;;;20.36;64.57;100546.23;108814;1257;73759;-53
2023/05/06 09:07:59;;;;;;;2.30;1.00;;;;;;;20.42;68.94;100546.17;108829;1257;62494;-54
2023/05/06 09:10:31;;;;;;;2.20;0.80;;;;;;;20.68;67.18;100539.02;108852;1257;61484;-53
2023/05/06 09:12:58;;;;;;;2.30;0.80;;;;;;;21.02;58.54;100540.73;108739;1258;75983;-57
2023/05/06 09:15:26;;;;;;;2.00;0.80;;;;;;;21.31;52.76;100542.94;108854;1257;68744;-54
2023/05/06 09:17:54;;;;;;;2.60;1.00;;;;;;;21.71;50.17;100549.37;108762;1257;74725;-54
2023/05/06 09:20:21;;;;;;;3.90;1.00;;;;;;;22.12;48.39;100546.36;108817;1257;61181;-54
2023/05/06 09:22:48;;;;;;;3.60;1.10;;;;;;;22.54;46.12;100550.64;108708;1257;62373;-56
2023/05/06 09:25:15;;;;;;;1.80;0.80;;;;;;;22.95;41.86;100545.92;108824;1257;75706;-57
2023/05/06 09:27:42;;;;;;;2.80;1.00;;;;;;;22.97;39.55;100542.96;108806;1257;68754;-53
2023/05/06 09:30:13;;;;;;;2.70;0.80;;;;;;;22.97;41.15;100541.20;108794;1257;74894;-53
2023/05/06 09:32:40;;;;;;;3.40;1.00;;;;;;;23.24;40.48;100538.73;108757;1257;62458;-57
2023/05/06 09:35:09;;;;;;;1.70;0.70;;;;;;;23.42;40.43;100536.66;108791;1257;61298;-56
2023/05/06 09:37:36;;;;;;;2.40;1.10;;;;;;;23.55;40.55;100533.98;108791;1257;75232;-53
2023/05/06 09:40:04;;;;;;;1.90;1.00;;;;;;;23.65;39.42;100531.99;108897;1257;68056;-54
2023/05/06 09:42:31;;;;;;;2.40;1.10;;;;;;;23.46;39.52;100531.51;108812;1257;73373;-55
2023/05/06 09:44:59;;;;;;;1.50;0.90;;;;;;;23.15;40.56;100532.19;108680;1257;61368;-61
2023/05/06 09:47:32;;;;;;;4.00;1.10;;;;;;;23.06;41.47;100534.51;108800;1257;62262;-56
2023/05/06 09:50:00;;;;;;;1.80;0.90;;;;;;;23.33;37.85;100534.13;108803;1257;75029;-56
2023/05/06 09:52:28;;;;;;;1.80;0.80;;;;;;;23.34;36.48;100529.55;108791;1257;68088;-56
2023/05/06 09:54:55;;;;;;;1.60;0.90;;;;;;;23.24;36.71;100530.73;108754;1257;74044;-56
2023/05/06 09:57:22;;;;;;;2.80;1.00;;;;;;;23.15;37.53;100533.48;108733;1258;63008;-56
2023/05/06 09:59:51;;;;;;;5.30;2.50;;;;;;;23.09;37.55;100527.16;108833;1257;62425;-55
2023/05/06 10:02:18;;;;;;;2.90;1.60;;;;;;;22.92;37.67;100531.80;108828;1257;75913;-60
2023/05/06 10:04:47;;;;;;;2.10;1.30;;;;;;;22.95;38.99;100530.98;108775;1257;69559;-54
2023/05/06 10:07:16;;;;;;;2.80;1.10;;;;;;;23.17;38.56;100530.98;108826;1257;74790;-54
2023/05/06 10:09:43;;;;;;;1.80;1.00;;;;;;;23.37;38.88;100532.44;108737;1257;63123;-53
2023/05/06 10:12:10;;;;;;;3.90;1.00;;;;;;;23.69;37.25;100536.17;108807;1257;62327;-54
2023/05/06 10:14:37;;;;;;;2.00;0.90;;;;;;;23.70;34.20;100528.34;108746;1257;74780;-57
2023/05/06 10:17:06;;;;;;;1.10;0.60;;;;;;;23.44;34.51;100536.45;108797;1257;68841;-57
2023/05/06 10:19:33;;;;;;;16.90;1.60;;;;;;;23.20;34.82;100534.45;108836;1257;74783;-53
2023/05/06 10:22:32;;;;;;;4.90;1.30;;;;;;;23.06;33.57;100535.13;108674;1257;62275;-54
2023/05/06 10:25:25;;;;;;;1.60;0.90;;;;;;;22.70;33.75;100534.55;108817;1257;61127;-53
2023/05/06 10:27:53;;;;;;;0.80;0.40;;;;;;;22.49;34.90;100529.92;108743;1257;76301;-54
2023/05/06 10:30:20;;;;;;;3.40;1.00;;;;;;;22.33;34.09;100534.17;108808;1257;69179;-57
2023/05/06 10:32:47;;;;;;;2.00;0.80;;;;;;;22.16;33.68;100536.59;108874;1257;73632;-54
2023/05/06 10:35:20;;;;;;;2.80;0.90;;;;;;;22.02;34.05;100541.37;108680;1257;62626;-54
2023/05/06 10:37:48;;;;;;;3.20;0.90;;;;;;;22.12;34.58;100541.10;108706;1257;61371;-53
2023/05/06 10:40:15;;;;;;;1.10;0.60;;;;;;;22.12;34.35;100534.25;108800;1257;75157;-58
2023/05/06 10:42:42;;;;;;;2.20;1.00;;;;;;;21.97;35.46;100531.41;108810;1257;69911;-53
2023/05/06 10:45:10;;;;;;;2.50;0.70;;;;;;;22.02;34.78;100528.52;108754;1257;74748;-54
2023/05/06 10:47:54;;;;;;;2.10;0.80;;;;;;;22.08;35.86;100527.84;108713;1257;61851;-54
2023/05/06 10:50:22;;;;;;;2.20;1.00;;;;;;;22.26;35.07;100522.86;108814;1257;61113;-55
2023/05/06 10:52:51;;;;;;;2.30;0.80;;;;;;;22.60;34.31;100522.68;108873;1257;74764;-53
2023/05/06 10:55:26;;;;;;;3.30;0.90;;;;;;;22.82;35.58;100525.63;108805;1257;68049;-55
2023/05/06 10:57:55;;;;;;;2.60;0.90;;;;;;;23.14;35.23;100527.04;108810;1262;74838;-54
2023/05/06 11:00:22;;;;;;;2.50;1.10;;;;;;;23.41;33.55;100528.36;108767;1257;62699;-54
2023/05/06 11:02:54;;;;;;;3.20;1.00;;;;;;;23.52;32.79;100528.23;108825;1257;62106;-54
2023/05/06 11:05:22;;;;;;;2.50;0.90;;;;;;;23.49;33.16;100529.49;108765;1257;75921;-55
2023/05/06 11:07:50;;;;;;;3.40;1.10;;;;;;;23.47;32.36;100524.91;108919;1257;69592;-54
2023/05/06 11:10:31;;;;;;;2.90;1.00;;;;;;;23.38;32.39;100525.86;108784;1257;75114;-54
2023/05/06 11:13:18;;;;;;;2.30;1.00;;;;;;;23.19;31.54;100532.16;108794;1257;63143;-57
2023/05/06 11:15:45;;;;;;;3.30;1.30;;;;;;;22.65;31.54;100522.64;108807;1257;62022;-55
2023/05/06 11:18:25;;;;;;;3.80;1.00;;;;;;;22.42;31.62;100528.20;108792;1257;75804;-54